Time;durP1;ratioP1;P1;durP2;ratioP2;P2;SDS_P1;SDS_P2;PMS_P1;PMS_P2;Temp;Humidity;BMP_temperature;BMP_pressure;BME280_temperature;BME280_humidity;BME280_pressure;Samples;Min_cycle;Max_cycle;Signal;HPM_P1;HPM_P2
2022/08/19 00:00:07;;;;;;;5.70;5.10;;;;;;;;;;5041574;28;20077;-72
2022/08/19 00:02:33;;;;;;;6.05;4.88;;;;;;;;;;5041446;28;20090;-72
2022/08/19 00:04:59;;;;;;;5.75;5.10;;;;;;;;;;5042383;28;20045;-71
2022/08/19 00:07:24;;;;;;;5.30;4.80;;;;;;;;;;5042594;28;20044;-72
2022/08/19 00:09:49;;;;;;;4.90;4.40;;;;;;;;;;5042506;28;20505;-71
2022/08/19 00:12:15;;;;;;;9.15;5.15;;;;;;;;;;5042588;28;20462;-72
2022/08/19 00:14:41;;;;;;;6.22;4.80;;;;;;;;;;5040107;28;20458;-71
2022/08/19 00:17:08;;;;;;;6.00;5.00;;;;;;;;;;5041965;28;20057;-71
2022/08/19 00:19:35;;;;;;;5.20;4.55;;;;;;;;;;5041363;28;20060;-71
2022/08/19 00:22:02;;;;;;;5.43;4.65;;;;;;;;;;5042180;28;20059;-71
2022/08/19 00:24:28;;;;;;;5.47;4.88;;;;;;;;;;5038443;28;20076;-71
2022/08/19 00:26:54;;;;;;;6.60;4.78;;;;;;;;;;5041937;28;20057;-72
2022/08/19 00:29:21;;;;;;;4.68;4.25;;;;;;;;;;5040752;28;20041;-71
2022/08/19 00:31:47;;;;;;;8.25;4.65;;;;;;;;;;5040807;28;20056;-71
2022/08/19 00:34:14;;;;;;;5.40;4.32;;;;;;;;;;5042368;28;20977;-71
2022/08/19 00:36:40;;;;;;;5.65;4.47;;;;;;;;;;5040691;28;20139;-71
2022/08/19 00:39:06;;;;;;;4.50;4.10;;;;;;;;;;5042639;28;20048;-72
2022/08/19 00:41:32;;;;;;;6.15;4.70;;;;;;;;;;5041825;28;20044;-71
2022/08/19 00:44:20;;;;;;;4.80;4.22;;;;;;;;;;5042180;28;20049;-72
2022/08/19 00:46:47;;;;;;;4.45;3.78;;;;;;;;;;5038982;28;20373;-72
2022/08/19 00:49:22;;;;;;;5.88;4.53;;;;;;;;;;5042130;28;20045;-71
2022/08/19 00:51:51;;;;;;;5.63;3.97;;;;;;;;;;5040195;28;20060;-71
2022/08/19 00:54:17;;;;;;;7.95;4.50;;;;;;;;;;5041603;28;20135;-72
2022/08/19 00:56:44;;;;;;;4.45;4.05;;;;;;;;;;5041392;28;20918;-72
2022/08/19 00:59:10;;;;;;;4.57;4.18;;;;;;;;;;5041261;28;20068;-72
2022/08/19 01:01:41;;;;;;;4.82;4.25;;;;;;;;;;5040001;28;20144;-71
2022/08/19 01:04:07;;;;;;;4.20;3.80;;;;;;;;;;5040338;28;20140;-72
2022/08/19 01:06:35;;;;;;;5.40;4.30;;;;;;;;;;5040749;28;20041;-73
2022/08/19 01:09:00;;;;;;;5.03;3.88;;;;;;;;;;5040632;28;20053;-73
2022/08/19 01:11:28;;;;;;;4.18;3.78;;;;;;;;;;5041685;28;20144;-72
2022/08/19 01:13:54;;;;;;;5.18;4.20;;;;;;;;;;5039808;28;20139;-72
2022/08/19 01:16:23;;;;;;;4.90;4.13;;;;;;;;;;5040813;28;20040;-72
2022/08/19 01:18:49;;;;;;;4.38;3.97;;;;;;;;;;5041144;28;20052;-72
2022/08/19 01:21:31;;;;;;;5.55;4.20;;;;;;;;;;5040393;28;20120;-72
2022/08/19 01:23:56;;;;;;;4.82;4.03;;;;;;;;;;5041497;28;20194;-71
2022/08/19 01:26:24;;;;;;;4.85;4.38;;;;;;;;;;5040863;28;20135;-72
2022/08/19 01:28:54;;;;;;;4.45;3.40;;;;;;;;;;5040705;28;20045;-71
2022/08/19 01:31:25;;;;;;;4.18;3.65;;;;;;;;;;5040102;28;20453;-72
2022/08/19 01:33:53;;;;;;;3.83;3.30;;;;;;;;;;5041501;28;20095;-72
2022/08/19 01:36:41;;;;;;;3.22;2.92;;;;;;;;;;5038746;28;20531;-72
2022/08/19 01:39:10;;;;;;;4.03;3.47;;;;;;;;;;5039505;28;20119;-73
2022/08/19 01:41:36;;;;;;;3.38;3.08;;;;;;;;;;5040464;28;20183;-73
2022/08/19 01:44:05;;;;;;;4.38;3.30;;;;;;;;;;5038535;28;21091;-73
2022/08/19 01:46:31;;;;;;;4.00;3.22;;;;;;;;;;5039909;28;20968;-73
2022/08/19 01:48:58;;;;;;;4.20;2.88;;;;;;;;;;5041105;28;20050;-74
2022/08/19 01:51:24;;;;;;;3.17;2.88;;;;;;;;;;5040310;28;20458;-73
2022/08/19 01:53:50;;;;;;;5.80;3.08;;;;;;;;;;5038405;28;20531;-73
2022/08/19 01:56:17;;;;;;;3.35;3.05;;;;;;;;;;5040210;28;20044;-76
2022/08/19 01:59:02;;;;;;;5.13;3.15;;;;;;;;;;5040440;28;20118;-73
2022/08/19 02:01:31;;;;;;;4.10;2.85;;;;;;;;;;5038980;28;20053;-73
2022/08/19 02:03:58;;;;;;;3.20;2.88;;;;;;;;;;5039671;28;20427;-73
2022/08/19 02:06:23;;;;;;;3.30;2.97;;;;;;;;;;5038599;28;20175;-74
2022/08/19 02:08:49;;;;;;;3.30;2.97;;;;;;;;;;5040328;28;20139;-73
2022/08/19 02:11:27;;;;;;;4.30;3.30;;;;;;;;;;5038855;28;20052;-73
2022/08/19 02:13:54;;;;;;;4.00;3.60;;;;;;;;;;5040286;28;20049;-73
2022/08/19 02:16:20;;;;;;;2.88;2.67;;;;;;;;;;5039745;28;20998;-74
2022/08/19 02:18:48;;;;;;;5.05;3.03;;;;;;;;;;5039836;28;20597;-73
2022/08/19 02:21:18;;;;;;;3.45;3.15;;;;;;;;;;5039955;28;20044;-73
2022/08/19 02:23:44;;;;;;;4.10;3.17;;;;;;;;;;5040215;28;20044;-73
2022/08/19 02:26:10;;;;;;;3.20;2.90;;;;;;;;;;5038322;28;20052;-73
2022/08/19 02:28:36;;;;;;;3.05;2.75;;;;;;;;;;5039697;28;20079;-73
2022/08/19 02:31:02;;;;;;;3.80;2.97;;;;;;;;;;5039899;28;20052;-73
2022/08/19 02:33:28;;;;;;;3.25;2.97;;;;;;;;;;5039913;28;20029;-73
2022/08/19 02:35:54;;;;;;;4.00;3.13;;;;;;;;;;5038484;28;20055;-73
2022/08/19 02:38:25;;;;;;;4.15;3.40;;;;;;;;;;5038917;28;20072;-74
2022/08/19 02:40:56;;;;;;;4.47;2.90;;;;;;;;;;5039989;28;20044;-73
2022/08/19 02:43:23;;;;;;;4.00;3.53;;;;;;;;;;5040248;28;20076;-73
2022/08/19 02:45:49;;;;;;;3.95;3.53;;;;;;;;;;5039375;28;20075;-73
2022/08/19 02:48:18;;;;;;;3.42;3.13;;;;;;;;;;5041195;28;20052;-73
2022/08/19 02:50:44;;;;;;;4.65;3.33;;;;;;;;;;5043578;28;20110;-73
2022/08/19 02:53:10;;;;;;;5.30;3.10;;;;;;;;;;5042371;28;20045;-73
2022/08/19 02:55:36;;;;;;;6.15;3.10;;;;;;;;;;5025883;28;20044;-73
2022/08/19 02:58:02;;;;;;;3.90;3.55;;;;;;;;;;5042218;28;20152;-73
2022/08/19 03:00:28;;;;;;;5.10;2.90;;;;;;;;;;5042069;28;20135;-73
2022/08/19 03:02:53;;;;;;;3.63;3.03;;;;;;;;;;5044088;28;20045;-73
2022/08/19 03:05:19;;;;;;;4.13;3.40;;;;;;;;;;5042359;28;20071;-73
2022/08/19 03:07:46;;;;;;;3.28;2.97;;;;;;;;;;5043949;28;20517;-73
2022/08/19 03:10:12;;;;;;;3.35;3.05;;;;;;;;;;5041311;28;20055;-73
2022/08/19 03:12:38;;;;;;;3.65;3.00;;;;;;;;;;5041762;28;20052;-73
2022/08/19 03:15:08;;;;;;;3.03;2.60;;;;;;;;;;5043592;28;20139;-73
2022/08/19 03:17:35;;;;;;;2.90;2.50;;;;;;;;;;5042029;28;20136;-73
2022/08/19 03:20:01;;;;;;;2.65;2.45;;;;;;;;;;5043582;28;20503;-73
2022/08/19 03:22:26;;;;;;;2.60;2.40;;;;;;;;;;5042438;28;20091;-73
2022/08/19 03:24:53;;;;;;;2.63;2.42;;;;;;;;;;5043510;28;20071;-73
2022/08/19 03:27:18;;;;;;;2.42;2.22;;;;;;;;;;5041742;28;20049;-73
2022/08/19 03:29:44;;;;;;;2.85;2.60;;;;;;;;;;5041798;28;20861;-73
2022/08/19 03:32:10;;;;;;;2.60;2.40;;;;;;;;;;5042409;28;20056;-73
2022/08/19 03:34:37;;;;;;;2.90;2.50;;;;;;;;;;5043223;28;20393;-73
2022/08/19 03:37:07;;;;;;;3.90;2.30;;;;;;;;;;5024628;28;20048;-73
2022/08/19 03:39:33;;;;;;;3.25;2.45;;;;;;;;;;5041961;28;20049;-73
2022/08/19 03:42:02;;;;;;;3.28;2.42;;;;;;;;;;5041806;28;20817;-73
2022/08/19 03:44:28;;;;;;;2.80;2.47;;;;;;;;;;5038856;28;20044;-73
2022/08/19 03:46:56;;;;;;;3.47;2.10;;;;;;;;;;5041845;28;20045;-73
2022/08/19 03:49:23;;;;;;;1.98;1.88;;;;;;;;;;5041523;28;20044;-73
2022/08/19 03:51:50;;;;;;;2.47;2.03;;;;;;;;;;5042587;28;20056;-73
2022/08/19 03:54:19;;;;;;;2.50;2.20;;;;;;;;;;5040123;28;20041;-73
2022/08/19 03:56:47;;;;;;;2.70;2.22;;;;;;;;;;5041876;28;20107;-73
2022/08/19 03:59:16;;;;;;;2.60;2.40;;;;;;;;;;5042148;28;20037;-73
2022/08/19 04:01:42;;;;;;;2.67;2.47;;;;;;;;;;5042539;28;20045;-73
2022/08/19 04:04:08;;;;;;;2.65;2.45;;;;;;;;;;5040795;28;20144;-73
2022/08/19 04:06:36;;;;;;;2.38;2.17;;;;;;;;;;5041881;28;20152;-73
2022/08/19 04:09:04;;;;;;;2.55;2.30;;;;;;;;;;5024722;28;20411;-73
2022/08/19 04:11:41;;;;;;;2.67;2.47;;;;;;;;;;5040957;28;20597;-73
2022/08/19 04:14:09;;;;;;;3.13;2.83;;;;;;;;;;5041064;28;20049;-73
2022/08/19 04:16:34;;;;;;;3.22;2.40;;;;;;;;;;5040931;28;20492;-74
2022/08/19 04:19:02;;;;;;;2.80;2.60;;;;;;;;;;5042475;28;20037;-74
2022/08/19 04:21:28;;;;;;;3.03;2.60;;;;;;;;;;5042510;28;20056;-73
2022/08/19 04:23:55;;;;;;;3.22;3.03;;;;;;;;;;5040820;28;20419;-73
2022/08/19 04:26:25;;;;;;;2.40;2.20;;;;;;;;;;5041251;28;20499;-74
2022/08/19 04:28:51;;;;;;;2.50;2.30;;;;;;;;;;5042159;28;20143;-74
2022/08/19 04:31:25;;;;;;;3.08;2.60;;;;;;;;;;5041737;28;20554;-73
2022/08/19 04:33:58;;;;;;;5.78;2.80;;;;;;;;;;5042552;28;20491;-73
2022/08/19 04:36:27;;;;;;;4.90;2.20;;;;;;;;;;5041607;28;20041;-73
2022/08/19 04:38:56;;;;;;;3.05;2.20;;;;;;;;;;5041373;28;20049;-74
2022/08/19 04:44:06;;;;;;;3.20;2.70;;;;;;;;;;5042035;28;20044;-73
2022/08/19 04:46:33;;;;;;;3.03;2.40;;;;;;;;;;5040985;28;20052;-74
2022/08/19 04:48:59;;;;;;;4.50;2.90;;;;;;;;;;5039830;28;20049;-74
2022/08/19 04:51:25;;;;;;;2.60;2.40;;;;;;;;;;5040397;28;20045;-74
2022/08/19 04:53:52;;;;;;;3.10;2.80;;;;;;;;;;5040621;28;20041;-73
2022/08/19 04:56:22;;;;;;;2.90;2.70;;;;;;;;;;5041027;28;20045;-74
2022/08/19 04:58:51;;;;;;;2.60;2.40;;;;;;;;;;5040239;28;20072;-74
2022/08/19 05:01:22;;;;;;;3.13;2.50;;;;;;;;;;5040014;28;20041;-73
2022/08/19 05:03:49;;;;;;;6.60;2.50;;;;;;;;;;5041458;28;20057;-73
2022/08/19 05:06:16;;;;;;;2.80;2.60;;;;;;;;;;5041326;28;20040;-73
2022/08/19 05:08:43;;;;;;;3.30;2.72;;;;;;;;;;5040369;28;20045;-74
2022/08/19 05:11:15;;;;;;;2.83;2.47;;;;;;;;;;5038959;28;20044;-73
2022/08/19 05:13:43;;;;;;;4.32;2.80;;;;;;;;;;5041956;28;20100;-73
2022/08/19 05:16:10;;;;;;;2.97;2.67;;;;;;;;;;5040000;28;20063;-73
2022/08/19 05:24:09;;;;;;;4.03;3.10;;;;;;;;;;5041405;28;20425;-73
2022/08/19 05:26:38;;;;;;;3.30;2.90;;;;;;;;;;5039304;28;20186;-74
2022/08/19 05:29:05;;;;;;;3.92;3.05;;;;;;;;;;5040813;28;20139;-74
2022/08/19 05:31:31;;;;;;;3.72;3.40;;;;;;;;;;5036859;28;20049;-73
2022/08/19 05:33:58;;;;;;;3.90;3.33;;;;;;;;;;5039939;28;20045;-74
2022/08/19 05:36:28;;;;;;;3.63;3.33;;;;;;;;;;5040136;28;20033;-74
2022/08/19 05:38:55;;;;;;;4.25;3.08;;;;;;;;;;5037953;28;20484;-73
2022/08/19 05:41:29;;;;;;;3.53;3.22;;;;;;;;;;5040028;28;20127;-73
2022/08/19 05:43:58;;;;;;;5.65;3.05;;;;;;;;;;5037488;28;20114;-73
2022/08/19 05:46:24;;;;;;;3.47;3.17;;;;;;;;;;5039953;28;20136;-73
2022/08/19 05:48:50;;;;;;;5.75;3.38;;;;;;;;;;5041091;28;20040;-73
2022/08/19 05:51:16;;;;;;;3.70;3.40;;;;;;;;;;5040673;28;20044;-73
2022/08/19 05:53:44;;;;;;;5.18;3.70;;;;;;;;;;5041223;28;20556;-72
2022/08/19 05:56:15;;;;;;;3.72;3.15;;;;;;;;;;5040365;28;20048;-73
2022/08/19 05:58:42;;;;;;;4.15;3.75;;;;;;;;;;5040173;28;20088;-73
2022/08/19 06:01:14;;;;;;;4.00;3.60;;;;;;;;;;5040262;28;20049;-73
2022/08/19 06:03:40;;;;;;;4.18;3.47;;;;;;;;;;5041026;28;20057;-72
2022/08/19 06:06:07;;;;;;;4.40;3.53;;;;;;;;;;5039824;28;20060;-73
2022/08/19 06:08:34;;;;;;;3.92;3.20;;;;;;;;;;5038396;28;20504;-73
2022/08/19 06:11:19;;;;;;;3.72;3.33;;;;;;;;;;5021128;28;20041;-73
2022/08/19 06:13:50;;;;;;;6.45;3.30;;;;;;;;;;5020700;28;20071;-73
2022/08/19 06:16:22;;;;;;;5.93;3.03;;;;;;;;;;5037400;28;20060;-73
2022/08/19 06:18:53;;;;;;;;;;;;;;;;;;5038769;28;20104;-73
2022/08/19 06:21:24;;;;;;;5.85;3.70;;;;;;;;;;5036888;28;19920;-72
2022/08/19 06:23:51;;;;;;;5.82;3.42;;;;;;;;;;5038164;28;20148;-72
2022/08/19 06:26:18;;;;;;;3.83;3.42;;;;;;;;;;5039860;28;20041;-73
2022/08/19 06:28:48;;;;;;;3.40;3.10;;;;;;;;;;5038691;28;20064;-73
2022/08/19 06:31:20;;;;;;;3.55;3.25;;;;;;;;;;5037541;28;20036;-73
2022/08/19 06:33:46;;;;;;;6.03;3.50;;;;;;;;;;5038123;28;20049;-72
2022/08/19 06:36:24;;;;;;;4.10;3.60;;;;;;;;;;5036817;28;20152;-73
2022/08/19 06:38:49;;;;;;;4.53;4.10;;;;;;;;;;5034279;28;20060;-72
2022/08/19 06:41:15;;;;;;;5.13;3.95;;;;;;;;;;5038313;28;20055;-72
2022/08/19 06:43:42;;;;;;;4.35;3.92;;;;;;;;;;5037110;28;20083;-73
2022/08/19 06:46:13;;;;;;;4.40;4.00;;;;;;;;;;5038158;28;20075;-72
2022/08/19 06:48:38;;;;;;;4.97;3.97;;;;;;;;;;5034664;28;20041;-72
2022/08/19 06:51:05;;;;;;;3.92;3.50;;;;;;;;;;5038006;28;20071;-74
2022/08/19 06:53:32;;;;;;;5.55;4.35;;;;;;;;;;5040088;28;20045;-74
2022/08/19 06:56:01;;;;;;;4.80;3.83;;;;;;;;;;5038944;28;20060;-75
2022/08/19 06:58:33;;;;;;;5.97;4.40;;;;;;;;;;5037398;28;20045;-74
2022/08/19 07:01:03;;;;;;;6.43;4.65;;;;;;;;;;5038724;28;20049;-75
2022/08/19 07:03:31;;;;;;;6.53;4.40;;;;;;;;;;5038438;28;20044;-74
2022/08/19 07:06:02;;;;;;;4.70;4.22;;;;;;;;;;5021844;28;20049;-74
2022/08/19 07:08:27;;;;;;;5.60;4.53;;;;;;;;;;5037307;28;20052;-74
2022/08/19 07:10:53;;;;;;;5.63;4.53;;;;;;;;;;5037972;28;20052;-74
2022/08/19 07:13:19;;;;;;;5.28;4.75;;;;;;;;;;5038705;28;20056;-75
2022/08/19 07:15:46;;;;;;;9.38;4.32;;;;;;;;;;5021466;28;20045;-75
2022/08/19 07:18:12;;;;;;;6.47;4.65;;;;;;;;;;5038219;28;20041;-75
2022/08/19 07:20:38;;;;;;;6.00;5.40;;;;;;;;;;5039196;28;20058;-77
2022/08/19 07:23:04;;;;;;;5.20;4.70;;;;;;;;;;5039658;28;20515;-75
2022/08/19 07:25:29;;;;;;;5.88;4.70;;;;;;;;;;5038322;28;20080;-76
2022/08/19 07:27:55;;;;;;;5.70;4.63;;;;;;;;;;5039410;28;20137;-74
2022/08/19 07:30:22;;;;;;;7.32;4.82;;;;;;;;;;5038727;28;20128;-76
2022/08/19 07:32:48;;;;;;;6.32;5.00;;;;;;;;;;5039052;28;20487;-75
2022/08/19 07:35:13;;;;;;;7.85;5.55;;;;;;;;;;5042455;28;20048;-74
2022/08/19 07:37:43;;;;;;;5.53;5.03;;;;;;;;;;5041334;28;20140;-75
2022/08/19 07:40:09;;;;;;;6.95;5.70;;;;;;;;;;5043049;28;20446;-74
2022/08/19 07:42:36;;;;;;;6.68;5.45;;;;;;;;;;5041241;28;20095;-73
2022/08/19 07:45:02;;;;;;;6.43;4.85;;;;;;;;;;5041894;28;20068;-73
2022/08/19 07:47:28;;;;;;;7.10;4.90;;;;;;;;;;5042866;28;20128;-73
2022/08/19 07:49:54;;;;;;;6.82;5.45;;;;;;;;;;5043005;28;20164;-77
2022/08/19 07:52:20;;;;;;;6.03;4.97;;;;;;;;;;5024590;28;20076;-75
2022/08/19 07:54:45;;;;;;;5.90;5.13;;;;;;;;;;5041090;28;20059;-74
2022/08/19 07:57:11;;;;;;;5.07;4.57;;;;;;;;;;5042996;28;20077;-74
2022/08/19 07:59:36;;;;;;;6.70;5.38;;;;;;;;;;5042608;28;20044;-73
2022/08/19 08:02:02;;;;;;;6.50;5.55;;;;;;;;;;5042632;28;20415;-76
2022/08/19 08:09:58;;;;;;;6.53;5.22;;;;;;;;;;5041922;28;20051;-71
2022/08/19 08:12:28;;;;;;;11.48;5.97;;;;;;;;;;5042094;28;20045;-70
2022/08/19 08:14:56;;;;;;;5.55;4.97;;;;;;;;;;5042775;28;20048;-74
2022/08/19 08:17:26;;;;;;;5.88;5.00;;;;;;;;;;5041211;28;20044;-72
2022/08/19 08:19:52;;;;;;;7.13;4.78;;;;;;;;;;5041834;28;20099;-74
2022/08/19 08:25:10;;;;;;;6.75;5.30;;;;;;;;;;5025533;28;20048;-72
2022/08/19 08:27:39;;;;;;;7.43;5.78;;;;;;;;;;5041502;28;20052;-75
2022/08/19 08:30:09;;;;;;;7.55;5.90;;;;;;;;;;5042465;28;20053;-72
2022/08/19 08:32:36;;;;;;;7.05;5.82;;;;;;;;;;5042087;28;20524;-72
2022/08/19 08:35:04;;;;;;;8.98;5.70;;;;;;;;;;5041431;28;20049;-72
2022/08/19 08:37:30;;;;;;;7.97;5.63;;;;;;;;;;5041732;28;20152;-72
2022/08/19 08:39:55;;;;;;;6.88;6.03;;;;;;;;;;5041905;28;20671;-75
2022/08/19 08:42:30;;;;;;;6.72;5.35;;;;;;;;;;5040433;28;20052;-77
2022/08/19 08:45:02;;;;;;;10.48;6.57;;;;;;;;;;5041799;28;20044;-73
2022/08/19 08:47:34;;;;;;;6.80;6.10;;;;;;;;;;5040957;28;20044;-73
2022/08/19 08:50:15;;;;;;;7.65;6.22;;;;;;;;;;5039915;28;20044;-73
2022/08/19 08:52:46;;;;;;;13.23;7.22;;;;;;;;;;5041903;28;20128;-72
2022/08/19 08:55:17;;;;;;;8.23;6.82;;;;;;;;;;5043340;28;20095;-71
2022/08/19 08:57:43;;;;;;;7.78;6.85;;;;;;;;;;5039890;28;20052;-71
2022/08/19 09:00:18;;;;;;;8.90;6.88;;;;;;;;;;5041471;28;20049;-71
2022/08/19 09:02:44;;;;;;;12.85;7.88;;;;;;;;;;5040750;28;20126;-71
2022/08/19 09:05:12;;;;;;;23.83;9.68;;;;;;;;;;5042185;28;20060;-72
2022/08/19 09:07:57;;;;;;;15.00;8.93;;;;;;;;;;5040186;28;20076;-73
2022/08/19 09:10:30;;;;;;;12.20;8.65;;;;;;;;;;5039189;28;20088;-71
2022/08/19 09:13:33;;;;;;;9.55;7.53;;;;;;;;;;5039787;28;20120;-71
2022/08/19 09:16:05;;;;;;;8.60;7.35;;;;;;;;;;5041262;28;20083;-71
2022/08/19 09:18:44;;;;;;;9.05;6.45;;;;;;;;;;5039038;28;20322;-71
2022/08/19 09:21:10;;;;;;;11.23;7.32;;;;;;;;;;5041637;28;20053;-71
2022/08/19 09:23:36;;;;;;;9.35;7.32;;;;;;;;;;5041193;28;20118;-72
2022/08/19 09:26:07;;;;;;;8.80;7.13;;;;;;;;;;5040323;28;20538;-73
2022/08/19 09:28:32;;;;;;;12.32;7.32;;;;;;;;;;5044904;28;20037;-73
2022/08/19 09:31:02;;;;;;;11.05;7.63;;;;;;;;;;5040473;28;20037;-72
2022/08/19 09:33:28;;;;;;;9.07;7.72;;;;;;;;;;5040208;28;20068;-72
2022/08/19 09:36:06;;;;;;;10.20;7.80;;;;;;;;;;5040487;28;20048;-72
2022/08/19 09:38:31;;;;;;;12.30;8.93;;;;;;;;;;5040484;28;20068;-75
2022/08/19 09:41:05;;;;;;;10.07;8.95;;;;;;;;;;5040730;28;20048;-72
2022/08/19 09:43:32;;;;;;;12.95;8.80;;;;;;;;;;5040961;28;20063;-72
2022/08/19 09:45:58;;;;;;;11.65;8.48;;;;;;;;;;5040257;28;20044;-71
2022/08/19 09:48:23;;;;;;;9.23;7.07;;;;;;;;;;5039999;28;20047;-70
2022/08/19 09:50:50;;;;;;;7.35;6.57;;;;;;;;;;5040517;28;20175;-71
2022/08/19 09:53:16;;;;;;;6.55;5.80;;;;;;;;;;5039671;28;20041;-72
2022/08/19 09:55:43;;;;;;;7.38;6.55;;;;;;;;;;5040356;28;20052;-69
2022/08/19 09:58:08;;;;;;;6.78;6.07;;;;;;;;;;5039396;28;20317;-71
2022/08/19 10:00:34;;;;;;;8.57;6.63;;;;;;;;;;5040263;28;20430;-74
2022/08/19 10:02:59;;;;;;;7.65;6.85;;;;;;;;;;5039547;28;20630;-73
2022/08/19 10:08:11;;;;;;;8.25;6.43;;;;;;;;;;5039287;28;20040;-73
2022/08/19 10:10:37;;;;;;;6.05;5.45;;;;;;;;;;5040281;28;20045;-72
2022/08/19 10:13:02;;;;;;;7.53;5.70;;;;;;;;;;5039399;28;20064;-73
2022/08/19 10:15:27;;;;;;;8.23;5.97;;;;;;;;;;5039293;28;20037;-72
2022/08/19 10:17:53;;;;;;;6.15;5.47;;;;;;;;;;5039469;28;20164;-72
2022/08/19 10:20:18;;;;;;;6.82;5.95;;;;;;;;;;5040774;28;20423;-73
2022/08/19 10:22:44;;;;;;;7.00;6.10;;;;;;;;;;5039868;28;20744;-72
2022/08/19 10:25:09;;;;;;;7.72;6.15;;;;;;;;;;5039205;28;20040;-76
2022/08/19 10:27:35;;;;;;;6.20;5.57;;;;;;;;;;5040872;28;20071;-74
2022/08/19 10:30:01;;;;;;;6.07;5.57;;;;;;;;;;5039812;28;20276;-73
2022/08/19 10:32:27;;;;;;;7.53;5.75;;;;;;;;;;5040139;28;20068;-74
2022/08/19 10:34:53;;;;;;;6.65;5.63;;;;;;;;;;5041049;28;20056;-73
2022/08/19 10:37:18;;;;;;;5.97;5.35;;;;;;;;;;5040363;28;20037;-72
2022/08/19 10:39:47;;;;;;;6.50;5.90;;;;;;;;;;5039298;28;20049;-72
2022/08/19 10:42:13;;;;;;;9.10;5.88;;;;;;;;;;5022498;28;20049;-73
2022/08/19 10:44:39;;;;;;;6.13;5.53;;;;;;;;;;5039758;28;20049;-73
2022/08/19 10:47:05;;;;;;;7.35;6.03;;;;;;;;;;5039595;28;20068;-72
2022/08/19 10:49:32;;;;;;;6.95;6.22;;;;;;;;;;5039762;28;20059;-75
2022/08/19 10:57:30;;;;;;;5.78;5.13;;;;;;;;;;5039852;28;20041;-73
2022/08/19 10:59:56;;;;;;;5.85;4.80;;;;;;;;;;5040132;28;20053;-73
2022/08/19 11:02:22;;;;;;;6.50;4.97;;;;;;;;;;5038302;28;20052;-73
2022/08/19 11:04:49;;;;;;;4.53;4.13;;;;;;;;;;5040526;28;20106;-73
2022/08/19 11:07:14;;;;;;;5.50;4.05;;;;;;;;;;5039959;28;20037;-74
2022/08/19 11:09:41;;;;;;;4.47;4.07;;;;;;;;;;5042323;28;20483;-74
2022/08/19 11:12:09;;;;;;;4.65;4.25;;;;;;;;;;5043526;28;20045;-73
2022/08/19 11:14:35;;;;;;;4.70;4.25;;;;;;;;;;5041939;28;20072;-74
2022/08/19 11:17:02;;;;;;;4.30;3.90;;;;;;;;;;5043664;28;20107;-74
2022/08/19 11:19:27;;;;;;;4.03;3.65;;;;;;;;;;5043544;28;20403;-74
2022/08/19 11:21:54;;;;;;;3.95;3.50;;;;;;;;;;5043499;28;20059;-75
2022/08/19 11:24:22;;;;;;;2.88;2.65;;;;;;;;;;5041929;28;20127;-74
2022/08/19 11:26:49;;;;;;;3.40;3.10;;;;;;;;;;5043065;28;20044;-74
2022/08/19 11:29:16;;;;;;;5.20;3.38;;;;;;;;;;5043252;28;20049;-74
2022/08/19 11:31:44;;;;;;;3.30;3.03;;;;;;;;;;5041988;28;20495;-73
2022/08/19 11:34:13;;;;;;;3.30;3.00;;;;;;;;;;5042788;28;20041;-73
2022/08/19 11:36:40;;;;;;;5.03;4.63;;;;;;;;;;5024955;28;20057;-72
2022/08/19 11:39:07;;;;;;;5.75;4.65;;;;;;;;;;5042780;28;20048;-73
2022/08/19 11:41:33;;;;;;;4.75;4.35;;;;;;;;;;5043450;28;20056;-73
2022/08/19 11:43:59;;;;;;;4.80;4.40;;;;;;;;;;5043435;28;20056;-74
2022/08/19 11:46:29;;;;;;;7.25;5.20;;;;;;;;;;5041867;28;20087;-74
2022/08/19 11:48:58;;;;;;;7.03;5.32;;;;;;;;;;5043418;28;20040;-76
2022/08/19 11:51:26;;;;;;;6.13;5.50;;;;;;;;;;5043137;28;20041;-76
2022/08/19 11:53:53;;;;;;;5.68;4.85;;;;;;;;;;5043135;28;20094;-75
2022/08/19 11:56:19;;;;;;;5.70;4.70;;;;;;;;;;5041224;28;20053;-73
2022/08/19 11:58:46;;;;;;;5.43;4.88;;;;;;;;;;5040898;28;20052;-75
2022/08/19 12:01:15;;;;;;;5.30;4.28;;;;;;;;;;5042926;28;20052;-76
2022/08/19 12:03:41;;;;;;;5.22;4.72;;;;;;;;;;5044104;28;20136;-73
2022/08/19 12:06:14;;;;;;;5.10;4.30;;;;;;;;;;5041932;28;20047;-74
2022/08/19 12:08:41;;;;;;;5.70;5.10;;;;;;;;;;5038331;28;20128;-75
2022/08/19 12:11:09;;;;;;;4.90;4.40;;;;;;;;;;5041317;28;20496;-72
2022/08/19 12:13:36;;;;;;;5.32;4.82;;;;;;;;;;5041456;28;20147;-74
2022/08/19 12:16:12;;;;;;;5.53;5.03;;;;;;;;;;5042257;28;20048;-74
2022/08/19 12:18:41;;;;;;;5.18;4.68;;;;;;;;;;5039657;28;20053;-72
2022/08/19 12:21:06;;;;;;;4.18;3.78;;;;;;;;;;5039697;28;20048;-74
2022/08/19 12:23:32;;;;;;;5.10;4.22;;;;;;;;;;5042812;28;20052;-73
2022/08/19 12:25:57;;;;;;;10.60;4.55;;;;;;;;;;5040933;28;20049;-73
2022/08/19 12:28:24;;;;;;;4.47;4.07;;;;;;;;;;5042107;28;20045;-73
2022/08/19 12:30:51;;;;;;;4.90;4.40;;;;;;;;;;5040644;28;20048;-75
2022/08/19 12:33:19;;;;;;;5.22;4.53;;;;;;;;;;5042176;28;20041;-76
2022/08/19 12:35:46;;;;;;;4.47;4.07;;;;;;;;;;5042466;28;20065;-75
2022/08/19 12:38:12;;;;;;;5.18;3.97;;;;;;;;;;5040486;28;20069;-76
2022/08/19 12:40:39;;;;;;;4.45;4.03;;;;;;;;;;5040750;28;20145;-76
2022/08/19 12:43:06;;;;;;;4.57;4.07;;;;;;;;;;5041016;28;20045;-74
2022/08/19 12:45:33;;;;;;;5.10;4.05;;;;;;;;;;5024078;28;20053;-75
2022/08/19 12:47:58;;;;;;;4.97;4.47;;;;;;;;;;5040399;28;20044;-74
2022/08/19 12:50:24;;;;;;;7.20;4.38;;;;;;;;;;5041440;28;20403;-74
2022/08/19 12:52:50;;;;;;;4.63;4.05;;;;;;;;;;5040257;28;20097;-72
2022/08/19 12:55:15;;;;;;;6.32;5.70;;;;;;;;;;5042382;28;20041;-72
2022/08/19 12:57:41;;;;;;;7.70;5.93;;;;;;;;;;5041826;28;20053;-74
2022/08/19 13:00:10;;;;;;;7.50;6.00;;;;;;;;;;5040480;28;20045;-75
2022/08/19 13:02:38;;;;;;;7.88;5.15;;;;;;;;;;5040818;28;20052;-75
2022/08/19 13:05:04;;;;;;;7.93;5.25;;;;;;;;;;5040676;28;20049;-75
2022/08/19 13:07:32;;;;;;;5.53;4.90;;;;;;;;;;5041567;28;20045;-75
2022/08/19 13:09:57;;;;;;;5.15;4.53;;;;;;;;;;5040368;28;20056;-74
2022/08/19 13:12:26;;;;;;;4.88;4.38;;;;;;;;;;5039581;28;20045;-77
2022/08/19 13:14:55;;;;;;;4.75;3.55;;;;;;;;;;5041006;28;20056;-74
2022/08/19 13:17:20;;;;;;;3.30;3.00;;;;;;;;;;5039854;28;20491;-74
2022/08/19 13:19:46;;;;;;;2.55;2.35;;;;;;;;;;5041565;28;20091;-73
2022/08/19 13:22:12;;;;;;;3.15;2.85;;;;;;;;;;5041364;28;20068;-73
2022/08/19 13:24:38;;;;;;;3.65;3.10;;;;;;;;;;5040098;28;20088;-75
2022/08/19 13:27:04;;;;;;;5.38;2.80;;;;;;;;;;5041435;28;20072;-74
2022/08/19 13:34:58;;;;;;;2.30;2.10;;;;;;;;;;5022633;28;20474;-74
2022/08/19 13:37:40;;;;;;;2.40;2.20;;;;;;;;;;5040293;28;20041;-73
2022/08/19 13:40:22;;;;;;;4.22;1.85;;;;;;;;;;5041334;28;20049;-73
2022/08/19 13:42:50;;;;;;;1.70;1.60;;;;;;;;;;5039415;28;20550;-73
2022/08/19 13:45:19;;;;;;;1.58;1.48;;;;;;;;;;5039930;28;20052;-73
2022/08/19 13:47:53;;;;;;;1.63;1.52;;;;;;;;;;5040334;28;20045;-74
2022/08/19 13:50:24;;;;;;;2.08;1.40;;;;;;;;;;5040603;28;20853;-72
2022/08/19 13:52:50;;;;;;;1.05;1.05;;;;;;;;;;5041439;28;20056;-76
2022/08/19 13:55:15;;;;;;;1.15;1.08;;;;;;;;;;5041142;28;20033;-75
2022/08/19 13:57:41;;;;;;;1.35;1.23;;;;;;;;;;5039782;28;20060;-76
2022/08/19 14:00:10;;;;;;;1.58;1.10;;;;;;;;;;5040660;28;20045;-79
2022/08/19 14:02:37;;;;;;;2.13;1.13;;;;;;;;;;5042689;28;20052;-79
2022/08/19 14:05:09;;;;;;;1.10;1.10;;;;;;;;;;5042145;28;20045;-78
2022/08/19 14:07:35;;;;;;;0.98;0.98;;;;;;;;;;5042432;28;20041;-78
2022/08/19 14:10:02;;;;;;;1.10;1.00;;;;;;;;;;5038841;28;20056;-78
2022/08/19 14:12:28;;;;;;;1.17;1.08;;;;;;;;;;5040039;28;20044;-77
2022/08/19 14:14:53;;;;;;;1.10;0.80;;;;;;;;;;5041000;28;20049;-79
2022/08/19 14:17:19;;;;;;;1.52;0.90;;;;;;;;;;5040135;28;20045;-77
2022/08/19 14:19:44;;;;;;;1.30;1.02;;;;;;;;;;5039712;28;20099;-78
2022/08/19 14:22:10;;;;;;;1.10;1.00;;;;;;;;;;5039808;28;20163;-77
2022/08/19 14:24:39;;;;;;;2.25;1.30;;;;;;;;;;5040243;28;20052;-74
2022/08/19 14:27:06;;;;;;;1.27;1.10;;;;;;;;;;5040960;28;20393;-77
2022/08/19 14:29:32;;;;;;;1.33;1.00;;;;;;;;;;5039069;28;20139;-77
2022/08/19 14:31:58;;;;;;;1.00;0.90;;;;;;;;;;5040791;28;20060;-77
2022/08/19 14:34:25;;;;;;;0.90;0.90;;;;;;;;;;5040747;28;20052;-72
2022/08/19 14:36:51;;;;;;;2.28;1.17;;;;;;;;;;5040321;28;20052;-73
2022/08/19 14:39:16;;;;;;;1.35;0.95;;;;;;;;;;5038336;28;20049;-71
2022/08/19 14:41:42;;;;;;;0.90;0.90;;;;;;;;;;5039311;28;20709;-71
2022/08/19 14:44:09;;;;;;;1.00;0.90;;;;;;;;;;5039773;28;20049;-72
2022/08/19 14:46:35;;;;;;;1.27;1.00;;;;;;;;;;5039307;28;20572;-72
2022/08/19 14:49:00;;;;;;;1.00;1.00;;;;;;;;;;5039489;28;20049;-72
2022/08/19 14:51:26;;;;;;;1.23;1.10;;;;;;;;;;5039882;28;20041;-72
2022/08/19 14:53:52;;;;;;;2.63;1.30;;;;;;;;;;5039885;28;20164;-71
2022/08/19 14:56:20;;;;;;;1.65;1.55;;;;;;;;;;5039870;28;20057;-72
2022/08/19 14:58:46;;;;;;;3.60;1.30;;;;;;;;;;5039078;28;20056;-73
2022/08/19 15:01:12;;;;;;;2.10;1.40;;;;;;;;;;5040326;28;20116;-73
2022/08/19 15:03:40;;;;;;;1.65;1.55;;;;;;;;;;5039843;28;20041;-74
2022/08/19 15:06:06;;;;;;;2.28;1.73;;;;;;;;;;5040131;28;20098;-78
2022/08/19 15:08:35;;;;;;;1.52;1.42;;;;;;;;;;5039327;28;20466;-76
2022/08/19 15:11:01;;;;;;;2.72;1.27;;;;;;;;;;5039896;28;20074;-75
2022/08/19 15:13:28;;;;;;;1.63;1.25;;;;;;;;;;5040244;28;20135;-74
2022/08/19 15:15:54;;;;;;;2.05;1.25;;;;;;;;;;5037875;28;20148;-76